createdAt,value
2018-07-19T00:01:23.363Z,21.98
2018-07-19T00:03:51.668Z,21.90
2018-07-19T00:06:20.010Z,21.85
2018-07-19T00:08:48.293Z,21.85
2018-07-19T00:11:16.726Z,21.74
2018-07-19T00:13:45.086Z,21.67
2018-07-19T00:16:13.526Z,21.70
2018-07-19T00:18:41.829Z,21.70
2018-07-19T00:21:10.070Z,21.63
2018-07-19T00:23:38.345Z,21.53
2018-07-19T00:26:06.564Z,21.52
2018-07-19T00:28:34.929Z,21.60
2018-07-19T00:31:03.382Z,21.49
2018-07-19T00:33:31.723Z,21.53
2018-07-19T00:35:59.995Z,21.50
2018-07-19T00:38:28.380Z,21.43
2018-07-19T00:40:56.714Z,21.38
2018-07-19T00:43:24.977Z,21.38
2018-07-19T00:45:53.314Z,21.35
2018-07-19T00:48:21.784Z,21.27
2018-07-19T00:50:50.101Z,21.28
2018-07-19T00:53:18.310Z,21.16
2018-07-19T00:55:46.617Z,21.12
2018-07-19T00:58:14.897Z,21.11
2018-07-19T01:00:43.174Z,21.11
2018-07-19T01:03:11.451Z,21.11
2018-07-19T01:05:39.737Z,21.07
2018-07-19T01:08:08.003Z,21.08
2018-07-19T01:10:36.332Z,21.03
2018-07-19T01:13:04.868Z,20.98
2018-07-19T01:15:33.186Z,20.98
2018-07-19T01:18:01.520Z,20.93
2018-07-19T01:20:30.166Z,20.94
2018-07-19T01:22:58.431Z,20.94
2018-07-19T01:25:26.867Z,20.92
2018-07-19T01:27:55.360Z,20.88
2018-07-19T01:30:23.726Z,20.85
2018-07-19T01:32:52.120Z,20.79
2018-07-19T01:35:20.387Z,20.67
2018-07-19T01:37:48.698Z,20.65
2018-07-19T01:40:17.159Z,20.60
2018-07-19T01:42:46.048Z,20.56
2018-07-19T01:45:14.662Z,20.51
2018-07-19T01:47:43.034Z,20.52
2018-07-19T01:50:11.924Z,20.52
2018-07-19T01:52:40.198Z,20.42
2018-07-19T01:55:08.944Z,20.38
2018-07-19T01:57:37.339Z,20.34
2018-07-19T02:00:05.898Z,20.31
2018-07-19T02:02:34.227Z,20.35
2018-07-19T02:05:02.497Z,20.24
2018-07-19T02:07:30.764Z,20.22
2018-07-19T02:09:59.109Z,20.19
2018-07-19T02:12:27.440Z,20.14
2018-07-19T02:14:55.713Z,20.12
2018-07-19T02:17:24.023Z,20.10
2018-07-19T02:19:52.487Z,20.06
2018-07-19T02:22:20.863Z,20.10
2018-07-19T02:24:49.180Z,20.04
2018-07-19T02:27:17.475Z,19.99
2018-07-19T02:29:57.640Z,20.02
2018-07-19T02:32:26.141Z,19.96
2018-07-19T02:34:54.510Z,19.93
2018-07-19T02:37:22.799Z,19.93
2018-07-19T02:39:51.170Z,19.89
2018-07-19T02:42:19.495Z,19.82
2018-07-19T02:44:47.900Z,19.79
2018-07-19T02:47:16.257Z,19.75
2018-07-19T02:49:44.594Z,19.71
2018-07-19T02:52:12.956Z,19.63
2018-07-19T02:54:41.234Z,19.62
2018-07-19T02:57:09.603Z,19.65
2018-07-19T02:59:37.893Z,19.64
2018-07-19T03:02:06.513Z,19.58
2018-07-19T03:04:34.779Z,19.53
2018-07-19T03:07:03.210Z,19.50
2018-07-19T03:09:31.610Z,19.47
2018-07-19T03:12:00.048Z,19.44
2018-07-19T03:14:28.430Z,19.41
2018-07-19T03:16:57.066Z,19.39
2018-07-19T03:19:25.365Z,19.31
2018-07-19T03:21:53.648Z,19.26
2018-07-19T03:24:21.987Z,19.28
2018-07-19T03:26:50.335Z,19.14
2018-07-19T03:29:18.620Z,19.19
2018-07-19T03:31:47.131Z,19.12
2018-07-19T03:34:15.541Z,19.07
2018-07-19T03:36:44.211Z,19.08
2018-07-19T03:39:12.649Z,19.15
2018-07-19T03:41:41.476Z,19.12
2018-07-19T03:44:09.811Z,19.10
2018-07-19T03:46:38.295Z,19.10
2018-07-19T03:49:06.823Z,19.09
2018-07-19T03:51:35.727Z,19.09
2018-07-19T03:54:04.252Z,19.08
2018-07-19T03:56:32.699Z,19.06
2018-07-19T03:59:00.977Z,19.10
2018-07-19T04:01:29.339Z,19.09
2018-07-19T04:03:57.772Z,19.07
2018-07-19T04:06:26.725Z,19.13
2018-07-19T04:08:55.154Z,19.10
2018-07-19T04:11:23.544Z,19.08
2018-07-19T04:13:52.036Z,19.04
2018-07-19T04:16:20.606Z,19.11
2018-07-19T04:18:48.933Z,19.14
2018-07-19T04:21:17.481Z,19.30
2018-07-19T04:23:45.885Z,19.28
2018-07-19T04:26:14.229Z,19.31
2018-07-19T04:28:42.731Z,19.28
2018-07-19T04:31:11.082Z,19.28
2018-07-19T04:33:39.492Z,19.26
2018-07-19T04:36:07.824Z,19.27
2018-07-19T04:38:36.244Z,19.30
2018-07-19T04:41:04.700Z,19.26
2018-07-19T04:43:33.107Z,19.38
2018-07-19T04:46:01.406Z,19.42
2018-07-19T04:48:29.719Z,19.51
2018-07-19T04:50:57.995Z,19.50
2018-07-19T04:53:26.379Z,19.68
2018-07-19T04:55:54.884Z,19.68
2018-07-19T04:58:23.232Z,19.78
2018-07-19T05:00:51.733Z,19.83
2018-07-19T05:03:19.998Z,19.89
2018-07-19T05:05:48.331Z,19.90
2018-07-19T05:08:16.681Z,20.06
2018-07-19T05:10:45.104Z,20.23
2018-07-19T05:13:13.386Z,20.37
2018-07-19T05:15:41.711Z,20.45
2018-07-19T05:18:11.122Z,20.63
2018-07-19T05:20:39.473Z,20.63
2018-07-19T05:23:07.926Z,20.70
2018-07-19T05:25:36.243Z,20.71
2018-07-19T05:28:04.624Z,20.80
2018-07-19T05:30:32.991Z,20.93
2018-07-19T05:33:01.444Z,21.02
2018-07-19T05:35:29.686Z,21.12
2018-07-19T05:37:57.960Z,21.30
2018-07-19T05:40:26.316Z,21.53
2018-07-19T05:42:54.636Z,21.70
2018-07-19T05:45:22.941Z,21.78
2018-07-19T05:47:51.328Z,21.76
2018-07-19T05:50:19.592Z,21.82
2018-07-19T05:52:47.912Z,21.84
2018-07-19T05:55:16.215Z,22.06
2018-07-19T05:57:44.625Z,22.12
2018-07-19T06:00:12.958Z,22.13
2018-07-19T06:02:41.626Z,22.40
2018-07-19T06:05:11.067Z,22.45
2018-07-19T06:07:39.542Z,22.61
2018-07-19T06:10:07.850Z,22.96
2018-07-19T06:12:36.429Z,23.18
2018-07-19T06:15:05.659Z,23.42
2018-07-19T06:17:33.948Z,23.39
2018-07-19T06:20:02.473Z,23.41
2018-07-19T06:22:30.785Z,23.41
2018-07-19T06:24:59.142Z,23.33
2018-07-19T06:27:27.349Z,23.27
2018-07-19T06:29:56.086Z,23.28
2018-07-19T06:32:24.497Z,23.46
2018-07-19T06:34:53.092Z,23.48
2018-07-19T06:37:21.792Z,23.60
2018-07-19T06:39:50.812Z,23.72
2018-07-19T06:42:19.378Z,23.77
2018-07-19T06:44:47.811Z,23.91
2018-07-19T06:47:16.091Z,24.12
2018-07-19T06:49:44.450Z,24.31
2018-07-19T06:52:12.902Z,24.38
2018-07-19T06:54:41.194Z,24.63
2018-07-19T06:57:09.545Z,24.67
2018-07-19T06:59:37.844Z,24.90
2018-07-19T07:02:06.535Z,24.92
2018-07-19T07:04:34.901Z,25.06
2018-07-19T07:07:03.251Z,25.26
2018-07-19T07:09:31.648Z,25.25
2018-07-19T07:11:59.980Z,25.54
2018-07-19T07:14:28.283Z,25.53
2018-07-19T07:16:56.581Z,25.79
2018-07-19T07:19:24.909Z,26.09
2018-07-19T07:21:53.180Z,26.07
2018-07-19T07:24:21.649Z,26.16
2018-07-19T07:26:49.904Z,26.24
2018-07-19T07:29:18.193Z,26.43
2018-07-19T07:31:46.475Z,26.61
2018-07-19T07:34:14.978Z,26.88
2018-07-19T07:36:43.351Z,27.07
2018-07-19T07:39:11.659Z,27.01
2018-07-19T07:41:40.157Z,26.97
2018-07-19T07:44:08.561Z,27.14
2018-07-19T07:46:36.853Z,27.14
2018-07-19T07:49:05.491Z,27.32
2018-07-19T07:51:33.834Z,27.48
2018-07-19T07:54:02.153Z,27.54
2018-07-19T07:56:30.472Z,27.44
2018-07-19T07:58:58.746Z,27.40
2018-07-19T08:01:27.108Z,27.27
2018-07-19T08:03:55.595Z,27.38
2018-07-19T08:06:23.839Z,27.52
2018-07-19T08:08:52.176Z,27.51
2018-07-19T08:11:20.717Z,27.67
2018-07-19T08:13:49.055Z,27.58
2018-07-19T08:16:17.379Z,27.74
2018-07-19T08:18:45.815Z,27.89
2018-07-19T08:21:14.185Z,27.85
2018-07-19T08:23:42.476Z,28.10
2018-07-19T08:26:10.729Z,28.24
2018-07-19T08:28:39.068Z,28.22
2018-07-19T08:31:07.441Z,28.21
2018-07-19T08:33:35.908Z,28.30
2018-07-19T08:36:04.517Z,28.38
2018-07-19T08:38:32.798Z,28.48
2018-07-19T08:41:01.163Z,28.63
2018-07-19T08:43:29.471Z,28.70
2018-07-19T08:45:57.819Z,28.79
2018-07-19T08:48:26.146Z,28.93
2018-07-19T08:50:54.483Z,29.08
2018-07-19T08:53:22.765Z,29.18
2018-07-19T08:55:51.096Z,29.32
2018-07-19T08:58:19.420Z,29.32
2018-07-19T09:00:47.679Z,29.49
2018-07-19T09:03:15.976Z,29.56
2018-07-19T09:05:44.306Z,29.68
2018-07-19T09:08:12.751Z,29.69
2018-07-19T09:10:41.092Z,29.46
2018-07-19T09:13:09.378Z,29.51
2018-07-19T09:15:37.641Z,29.58
2018-07-19T09:18:06.152Z,29.42
2018-07-19T09:20:34.486Z,29.59
2018-07-19T09:23:03.595Z,29.51
2018-07-19T09:25:31.982Z,29.84
2018-07-19T09:28:00.260Z,30.11
2018-07-19T09:30:28.515Z,30.30
2018-07-19T09:32:56.764Z,30.39
2018-07-19T09:35:25.018Z,30.34
2018-07-19T09:37:53.304Z,30.57
2018-07-19T09:40:21.633Z,30.54
2018-07-19T09:42:49.967Z,30.49
2018-07-19T09:45:18.300Z,30.42
2018-07-19T09:47:46.643Z,30.44
2018-07-19T09:50:15.004Z,30.71
2018-07-19T09:52:43.583Z,30.88
2018-07-19T09:55:11.937Z,31.15
2018-07-19T09:57:40.577Z,31.31
2018-07-19T10:00:09.160Z,31.44
2018-07-19T10:02:37.461Z,31.55
2018-07-19T10:05:05.846Z,31.72
2018-07-19T10:07:34.124Z,31.68
2018-07-19T10:10:02.457Z,31.94
2018-07-19T10:12:30.768Z,31.89
2018-07-19T10:14:59.057Z,32.13
2018-07-19T10:17:27.383Z,32.16
2018-07-19T10:19:55.813Z,32.52
2018-07-19T10:22:24.055Z,32.56
2018-07-19T10:24:52.543Z,32.51
2018-07-19T10:27:20.756Z,32.50
2018-07-19T10:29:49.068Z,32.64
2018-07-19T10:32:17.438Z,32.82
2018-07-19T10:34:45.741Z,32.66
2018-07-19T10:37:14.045Z,32.69
2018-07-19T10:39:42.287Z,32.82
2018-07-19T10:42:11.020Z,32.78
2018-07-19T10:44:41.174Z,32.94
2018-07-19T10:47:09.624Z,32.84
2018-07-19T10:49:37.914Z,32.56
2018-07-19T10:52:06.306Z,32.56
2018-07-19T10:54:34.556Z,32.90
2018-07-19T10:57:02.888Z,32.79
2018-07-19T10:59:31.721Z,32.76
2018-07-19T11:02:00.085Z,32.55
2018-07-19T11:04:28.764Z,32.35
2018-07-19T11:06:57.121Z,32.43
2018-07-19T11:09:25.482Z,32.54
2018-07-19T11:11:53.901Z,32.25
2018-07-19T11:14:22.142Z,32.56
2018-07-19T11:16:50.672Z,32.48
2018-07-19T11:19:19.545Z,32.63
2018-07-19T11:21:47.923Z,32.88
2018-07-19T11:24:16.176Z,33.00
2018-07-19T11:26:44.635Z,33.36
2018-07-19T11:29:12.939Z,33.08
2018-07-19T11:31:41.367Z,33.47
2018-07-19T11:34:09.689Z,33.86
2018-07-19T11:36:38.015Z,34.11
2018-07-19T11:39:07.942Z,34.34
2018-07-19T11:41:36.690Z,34.47
2018-07-19T11:44:05.391Z,34.71
2018-07-19T11:46:33.840Z,34.98
2018-07-19T11:49:02.330Z,35.31
2018-07-19T11:51:30.730Z,35.38
2018-07-19T11:53:59.198Z,35.66
2018-07-19T11:56:27.540Z,35.80
2018-07-19T11:58:55.992Z,35.95
2018-07-19T12:01:24.414Z,36.37
2018-07-19T12:03:52.656Z,37.12
2018-07-19T12:06:21.067Z,38.00
2018-07-19T12:08:49.321Z,39.04
2018-07-19T12:11:17.949Z,40.20
2018-07-19T12:13:46.463Z,41.12
2018-07-19T12:16:14.727Z,41.66
2018-07-19T12:18:43.041Z,42.13
2018-07-19T12:21:11.339Z,42.86
2018-07-19T12:23:39.588Z,43.88
2018-07-19T12:26:08.149Z,45.13
2018-07-19T12:28:36.438Z,46.49
2018-07-19T12:31:04.728Z,47.46
2018-07-19T12:33:33.020Z,47.80
2018-07-19T12:36:01.416Z,48.90
2018-07-19T12:38:29.632Z,49.49
2018-07-19T12:40:58.251Z,50.11
2018-07-19T12:43:26.562Z,50.97
2018-07-19T12:45:55.072Z,52.00
2018-07-19T12:48:23.267Z,51.85
2018-07-19T12:50:51.546Z,51.50
2018-07-19T12:53:19.941Z,52.34
2018-07-19T12:55:48.395Z,52.42
2018-07-19T12:58:16.643Z,53.15
2018-07-19T13:00:45.162Z,53.79
2018-07-19T13:03:13.426Z,54.34
2018-07-19T13:05:41.732Z,55.04
2018-07-19T13:08:10.111Z,55.46
2018-07-19T13:10:38.381Z,55.31
2018-07-19T13:13:06.965Z,55.54
2018-07-19T13:15:35.767Z,55.83
2018-07-19T13:18:04.095Z,54.36
2018-07-19T13:20:32.444Z,53.57
2018-07-19T13:23:00.737Z,52.76
2018-07-19T13:25:29.312Z,52.39
2018-07-19T13:27:57.558Z,53.27
2018-07-19T13:30:25.880Z,54.44
2018-07-19T13:32:54.849Z,55.00
2018-07-19T13:35:23.199Z,55.81
2018-07-19T13:37:51.605Z,55.21
2018-07-19T13:40:20.772Z,54.61
2018-07-19T13:42:49.010Z,53.89
2018-07-19T13:45:18.017Z,54.27
2018-07-19T13:47:46.332Z,55.59
2018-07-19T13:50:14.666Z,55.27
2018-07-19T13:52:54.228Z,54.62
2018-07-19T13:55:22.495Z,54.32
2018-07-19T13:57:50.794Z,55.36
2018-07-19T14:00:19.105Z,56.30
2018-07-19T14:02:48.255Z,56.76
2018-07-19T14:05:16.720Z,57.14
2018-07-19T14:07:45.079Z,57.29
2018-07-19T14:10:13.378Z,58.28
2018-07-19T14:12:41.708Z,57.95
2018-07-19T14:15:09.992Z,57.39
2018-07-19T14:17:38.401Z,56.73
2018-07-19T14:20:09.039Z,56.29
2018-07-19T14:22:37.481Z,56.30
2018-07-19T14:25:05.912Z,55.55
2018-07-19T14:27:34.204Z,55.12
2018-07-19T14:30:02.554Z,54.49
2018-07-19T14:32:31.400Z,54.34
2018-07-19T14:34:59.707Z,55.28
2018-07-19T14:37:28.230Z,56.40
2018-07-19T14:39:56.540Z,56.56
2018-07-19T14:42:24.842Z,56.03
2018-07-19T14:44:53.220Z,56.06
2018-07-19T14:47:21.690Z,56.16
2018-07-19T14:49:50.068Z,55.73
2018-07-19T14:52:18.393Z,54.40
2018-07-19T14:54:46.709Z,54.13
2018-07-19T14:57:15.100Z,53.82
2018-07-19T14:59:43.387Z,52.48
2018-07-19T15:02:11.733Z,52.95
2018-07-19T15:04:40.013Z,53.04
2018-07-19T15:07:08.303Z,53.03
2018-07-19T15:09:36.564Z,52.73
2018-07-19T15:12:04.876Z,53.56
2018-07-19T15:14:33.136Z,54.34
2018-07-19T15:17:01.505Z,54.96
2018-07-19T15:19:29.808Z,55.61
2018-07-19T15:21:58.022Z,55.12
2018-07-19T15:24:26.277Z,54.46
2018-07-19T15:26:54.715Z,54.76
2018-07-19T15:29:23.004Z,55.11
2018-07-19T15:31:51.292Z,54.46
2018-07-19T15:34:19.575Z,54.39
2018-07-19T15:36:47.886Z,54.04
2018-07-19T15:39:16.092Z,54.63
2018-07-19T15:41:44.546Z,54.72
2018-07-19T15:44:12.822Z,53.91
2018-07-19T15:46:41.169Z,52.67
2018-07-19T15:49:09.510Z,52.22
2018-07-19T15:51:37.803Z,52.47
2018-07-19T15:54:06.071Z,53.51
2018-07-19T15:56:34.404Z,53.75
2018-07-19T15:59:02.785Z,53.05
2018-07-19T16:01:31.137Z,52.78
2018-07-19T16:03:59.464Z,52.87
2018-07-19T16:06:27.957Z,53.20
2018-07-19T16:08:56.271Z,53.76
2018-07-19T16:11:24.694Z,54.63
2018-07-19T16:13:53.145Z,54.53
2018-07-19T16:16:21.462Z,54.80
2018-07-19T16:18:49.847Z,54.96
2018-07-19T16:21:18.151Z,54.31
2018-07-19T16:23:46.487Z,53.78
2018-07-19T16:26:14.806Z,53.69
2018-07-19T16:28:43.044Z,53.32
2018-07-19T16:31:11.284Z,53.00
2018-07-19T16:33:39.580Z,51.19
2018-07-19T16:36:07.872Z,50.43
2018-07-19T16:38:36.226Z,49.10
2018-07-19T16:41:04.529Z,48.69
2018-07-19T16:43:32.824Z,48.82
2018-07-19T16:46:01.240Z,49.67
2018-07-19T16:48:29.504Z,49.14
2018-07-19T16:50:57.870Z,48.64
2018-07-19T16:53:26.280Z,48.62
2018-07-19T16:55:54.584Z,49.08
2018-07-19T16:58:22.997Z,49.90
2018-07-19T17:00:51.324Z,50.11
2018-07-19T17:03:19.649Z,49.97
2018-07-19T17:05:47.904Z,49.47
2018-07-19T17:08:20.968Z,48.82
2018-07-19T17:10:49.401Z,48.73
2018-07-19T17:13:17.988Z,48.65
2018-07-19T17:15:46.331Z,48.25
2018-07-19T17:18:14.598Z,47.79
2018-07-19T17:20:42.982Z,47.44
2018-07-19T17:23:11.473Z,47.88
2018-07-19T17:25:39.786Z,48.35
2018-07-19T17:28:08.075Z,48.08
2018-07-19T17:30:36.508Z,47.56
2018-07-19T17:33:05.122Z,47.42
2018-07-19T17:35:33.962Z,47.08
2018-07-19T17:38:02.351Z,47.23
2018-07-19T17:40:30.687Z,47.58
2018-07-19T17:42:58.989Z,47.86
2018-07-19T17:45:27.892Z,48.04
2018-07-19T17:47:56.390Z,47.70
2018-07-19T17:50:24.647Z,47.39
2018-07-19T17:52:52.996Z,47.14
2018-07-19T17:55:21.291Z,46.70
2018-07-19T17:57:49.579Z,45.83
2018-07-19T18:00:17.900Z,45.18
2018-07-19T18:02:46.242Z,44.09
2018-07-19T18:05:14.498Z,43.01
2018-07-19T18:07:43.397Z,41.61
2018-07-19T18:10:11.834Z,40.32
2018-07-19T18:12:40.929Z,39.14
2018-07-19T18:15:09.367Z,37.93
2018-07-19T18:17:37.721Z,36.84
2018-07-19T18:20:06.172Z,36.14
2018-07-19T18:22:34.574Z,35.70
2018-07-19T18:25:02.925Z,35.24
2018-07-19T18:27:31.272Z,34.78
2018-07-19T18:29:59.638Z,34.29
2018-07-19T18:32:28.637Z,33.85
2018-07-19T18:34:57.052Z,33.58
2018-07-19T18:37:27.611Z,33.41
2018-07-19T18:42:49.179Z,32.94
2018-07-19T18:45:17.915Z,32.83
2018-07-19T18:47:46.606Z,32.67
2018-07-19T18:50:15.272Z,32.44
2018-07-19T18:52:44.006Z,32.15
2018-07-19T18:55:12.754Z,31.92
2018-07-19T18:57:41.613Z,31.72
2018-07-19T19:00:10.440Z,31.52
2018-07-19T19:02:39.201Z,31.35
2018-07-19T19:05:08.124Z,31.20
2018-07-19T19:07:36.855Z,31.07
2018-07-19T19:10:05.579Z,31.02
2018-07-19T19:12:34.432Z,30.98
2018-07-19T19:15:03.119Z,30.85
2018-07-19T19:17:31.831Z,30.70
2018-07-19T19:20:00.545Z,30.49
2018-07-19T19:22:29.339Z,30.35
2018-07-19T19:24:58.209Z,30.26
2018-07-19T19:27:27.318Z,30.11
2018-07-19T19:29:56.017Z,29.97
2018-07-19T19:32:24.792Z,29.88
2018-07-19T19:34:53.702Z,29.79
2018-07-19T19:37:22.702Z,29.60
2018-07-19T19:39:51.446Z,29.46
2018-07-19T19:42:20.198Z,29.45
2018-07-19T19:44:48.970Z,29.28
2018-07-19T19:47:17.651Z,29.26
2018-07-19T19:49:46.328Z,29.23
2018-07-19T19:52:15.304Z,29.13
2018-07-19T19:54:44.013Z,29.12
2018-07-19T19:57:12.735Z,29.09
2018-07-19T19:59:41.410Z,29.11
2018-07-19T20:02:10.167Z,28.97
2018-07-19T20:04:38.955Z,28.93
2018-07-19T20:07:07.598Z,28.86
2018-07-19T20:09:36.255Z,28.87
2018-07-19T20:12:05.016Z,28.82
2018-07-19T20:14:33.753Z,28.75
2018-07-19T20:17:02.450Z,28.71
2018-07-19T20:19:31.195Z,28.60
2018-07-19T20:22:00.000Z,28.55
2018-07-19T20:24:28.794Z,28.53
2018-07-19T20:26:57.534Z,28.48
2018-07-19T20:29:26.321Z,28.35
2018-07-19T20:31:55.101Z,28.28
2018-07-19T20:34:23.880Z,28.24
2018-07-19T20:36:52.533Z,28.23
2018-07-19T20:39:22.017Z,28.16
2018-07-19T20:41:50.877Z,28.07
2018-07-19T20:44:19.803Z,27.99
2018-07-19T20:46:48.570Z,27.94
2018-07-19T20:49:17.280Z,28.00
2018-07-19T20:51:46.071Z,28.03
2018-07-19T20:54:14.917Z,28.09
2018-07-19T20:59:25.410Z,28.12
2018-07-19T21:01:54.113Z,28.02
2018-07-19T21:04:27.171Z,27.93
2018-07-19T21:06:55.896Z,27.85
2018-07-19T21:09:25.475Z,27.71
2018-07-19T21:11:55.229Z,27.56
2018-07-19T21:14:24.058Z,27.45
2018-07-19T21:16:52.810Z,27.40
2018-07-19T21:19:21.562Z,27.38
2018-07-19T21:21:50.257Z,27.35
2018-07-19T21:24:18.956Z,27.32
2018-07-19T21:26:47.720Z,27.28
2018-07-19T21:29:16.455Z,27.24
2018-07-19T21:31:45.280Z,27.13
2018-07-19T21:34:13.944Z,27.00
2018-07-19T21:36:42.569Z,26.85
2018-07-19T21:39:11.948Z,26.81
2018-07-19T21:41:41.099Z,26.88
2018-07-19T21:44:10.683Z,26.89
2018-07-19T21:46:39.383Z,26.76
2018-07-19T21:49:08.076Z,26.71
2018-07-19T21:51:36.891Z,26.74
2018-07-19T21:54:05.546Z,26.74
2018-07-19T21:56:34.351Z,26.76
2018-07-19T21:59:03.152Z,26.79
2018-07-19T22:01:31.978Z,26.86
2018-07-19T22:04:00.722Z,26.88
2018-07-19T22:06:29.476Z,26.70
2018-07-19T22:08:58.149Z,26.61
2018-07-19T22:11:26.926Z,26.62
2018-07-19T22:13:55.628Z,26.66
2018-07-19T22:16:24.290Z,26.53
2018-07-19T22:18:52.998Z,26.41
2018-07-19T22:21:21.859Z,26.34
2018-07-19T22:23:50.602Z,26.30
2018-07-19T22:26:20.667Z,26.20
2018-07-19T22:28:51.916Z,26.07
2018-07-19T22:31:21.009Z,26.01
2018-07-19T22:33:50.221Z,25.93
2018-07-19T22:36:19.118Z,25.92
2018-07-19T22:38:48.151Z,25.84
2018-07-19T22:41:17.174Z,25.74
2018-07-19T22:43:46.005Z,25.61
2018-07-19T22:46:14.699Z,25.36
2018-07-19T22:48:43.503Z,25.15
2018-07-19T22:51:12.296Z,24.99
2018-07-19T22:53:41.087Z,24.88
2018-07-19T22:56:17.979Z,24.83
2018-07-19T22:58:46.829Z,24.75
2018-07-19T23:01:15.777Z,24.69
2018-07-19T23:03:55.994Z,24.66
2018-07-19T23:06:50.857Z,24.62
2018-07-19T23:12:26.383Z,24.52
2018-07-19T23:15:05.514Z,24.48
2018-07-19T23:17:49.055Z,24.47
2018-07-19T23:20:36.659Z,24.41
2018-07-19T23:26:10.030Z,24.21
2018-07-19T23:28:49.058Z,24.18
2018-07-19T23:34:30.441Z,24.12
2018-07-19T23:37:21.987Z,24.08
2018-07-19T23:40:10.225Z,24.10
2018-07-19T23:42:57.946Z,24.09
2018-07-19T23:46:54.710Z,23.99
2018-07-19T23:49:41.827Z,23.86
2018-07-19T23:52:20.729Z,23.77
2018-07-19T23:55:08.287Z,23.67
2018-07-19T23:57:55.193Z,23.69
